Sunday, January 21, 2018, 3:33 PM EST
Back to Local

K1V4, St Johnsbury Fairbanks

Location: Saint Johnsbury, VT, United States Lat: 44.417
Local Time: 3:33 PM EST (20:33 GMT) Lon: -72.017
Time Zone: US/Eastern Elev: 695 ft

Show me the last for .
Show Coded

Time T Td Feel RH Dir Speed Gust Alt SLP Vis Weather Sky Remarks
2018-01-21 14:54 39 27 - 61 - - - 30.08 30.10 0 None
2018-01-21 13:54 38 27 - 64 - - - 30.07 30.09 0 None
2018-01-21 12:54 37 27 - 66 - - - 30.07 30.09 0 6-hr Min Temp (1pm): 34.0°F
6-hr Max Temp (1pm): 37.9°F
2018-01-21 11:54 36 26 - 66 - - - 30.09 30.11 0 None
2018-01-21 10:54 36 26 - 66 - - - 30.10 30.12 0 None
2018-01-21 09:54 35 26 - 69 - - - 30.09 30.12 0 None
2018-01-21 08:54 35 26 - 69 - - - 30.07 30.10 0 None
2018-01-21 07:54 34 26 - 72 - - - 30.06 30.08 0 None
2018-01-21 06:54 35 26 - 69 - - - 30.04 30.06 0 6-hr Min Temp (7am): 35.1°F
6-hr Max Temp (7am): 39.0°F
2018-01-21 05:54 35 27 - 72 - - - 30.03 30.05 0 None
2018-01-21 04:54 36 28 - 72 - - - 30.00 30.02 0 None
2018-01-21 03:54 36 29 - 75 - - - 29.98 30.00 0 None
2018-01-21 02:54 38 31 - 75 - - - 29.95 29.96 0 None
2018-01-21 01:54 37 30 - 75 - - - 29.91 29.93 0 None
2018-01-21 00:54 38 29 - 69 - - - 29.89 29.90 0 6-hr Min Temp (1am): 36.0°F
6-hr Max Temp (1am): 37.9°F
2018-01-20 23:54 38 29 - 69 - - - 29.88 29.90 0 24-hr Min Temp (12am): 25.0°F
24-hr Max Temp (12am): 43.0°F
2018-01-20 22:54 38 29 - 69 - - - 29.87 29.89 0 None
2018-01-20 21:54 36 29 - 75 - - - 29.85 29.87 0 None
2018-01-20 20:54 37 29 - 72 - - - 29.85 29.87 0 None
2018-01-20 19:54 37 29 - 72 - - - 29.82 29.85 0 None
2018-01-20 18:54 37 29 - 72 - - - 29.81 29.83 0 6-hr Min Temp (7pm): 37.0°F
6-hr Max Temp (7pm): 43.0°F
2018-01-20 17:54 38 29 - 69 - - - 29.78 29.81 0 None
2018-01-20 16:54 39 28 - 64 - - - 29.75 29.77 0 Pressure rising rapidly
2018-01-20 15:54 40 29 - 64 - - - 29.70 29.72 0 None

Support USWX by starting your Amazon purchase here.